KACV/ACV METAR and TAF weather

Enter ICAO airport designator
Station Type Date Time Source
KACV METAR 2022/08/13 12:53 UTC NOAA

KACV 131253Z AUTO 00000KT 10SM CLR 09/09 A3012 RMK AO2 SLP203 T00940089


Station Type Date Time Source
KACV Decoded METAR 2022/08/13 12:53 UTC NOAA

ARCATA/EUREKA ARCATA AIRPORT, CA, United States (KACV) 40-59N 124-06W 67M
Aug 13, 2022 - 08:53 AM EDT / 2022.08.13 1253 UTC
Wind: Calm:0
Visibility: 10 mile(s):0
Sky conditions: clear
Temperature: 48.9 F (9.4 C)
Dew Point: 48.0 F (8.9 C)
Relative Humidity: 96%
Pressure (altimeter): 30.12 in. Hg (1019 hPa)
ob: KACV 131253Z AUTO 00000KT 10SM CLR 09/09 A3012 RMK AO2 SLP203 T00940089
cycle: 13

Station Type Date Time Source
KACV TAF 2022/08/13 12:30 UTC NOAA

TAF KACV 131127Z 1312/1412 VRB05KT P6SM SKC
TEMPO 1314/1318 4SM BR SCT010
FM131900 31008KT P6SM SKC
FM132200 32013KT P6SM SKC
FM140400 34009KT P6SM BKN010
FM140700 VRB04KT 4SM BR OVC007

Example: see airport list